sensor_id;sensor_type;location;lat;lon;timestamp;P1;durP1;ratioP1;P2;durP2;ratioP2
31818;SDS011;18384;48.860;9.188;2024-01-30T00:02:14;26.37;;;10.68;;
31818;SDS011;18384;48.860;9.188;2024-01-30T00:04:40;26.20;;;10.35;;
31818;SDS011;18384;48.860;9.188;2024-01-30T00:07:07;23.12;;;9.95;;
31818;SDS011;18384;48.860;9.188;2024-01-30T00:09:33;19.08;;;9.30;;
31818;SDS011;18384;48.860;9.188;2024-01-30T00:11:59;23.45;;;9.40;;
31818;SDS011;18384;48.860;9.188;2024-01-30T00:16:51;18.00;;;9.63;;
31818;SDS011;18384;48.860;9.188;2024-01-30T00:21:43;28.33;;;10.15;;
31818;SDS011;18384;48.860;9.188;2024-01-30T00:24:09;20.42;;;10.23;;
31818;SDS011;18384;48.860;9.188;2024-01-30T00:26:36;34.70;;;10.43;;
31818;SDS011;18384;48.860;9.188;2024-01-30T00:29:02;24.60;;;11.32;;
31818;SDS011;18384;48.860;9.188;2024-01-30T00:31:28;21.00;;;10.63;;
31818;SDS011;18384;48.860;9.188;2024-01-30T00:36:20;18.90;;;10.00;;
31818;SDS011;18384;48.860;9.188;2024-01-30T00:38:46;22.20;;;10.52;;
31818;SDS011;18384;48.860;9.188;2024-01-30T00:41:12;31.87;;;11.93;;
31818;SDS011;18384;48.860;9.188;2024-01-30T00:43:39;24.87;;;10.98;;
31818;SDS011;18384;48.860;9.188;2024-01-30T00:46:05;36.58;;;10.82;;
31818;SDS011;18384;48.860;9.188;2024-01-30T00:48:31;24.00;;;10.20;;
31818;SDS011;18384;48.860;9.188;2024-01-30T00:50:57;30.30;;;11.98;;
31818;SDS011;18384;48.860;9.188;2024-01-30T00:53:23;28.05;;;10.68;;
31818;SDS011;18384;48.860;9.188;2024-01-30T00:55:49;23.08;;;11.82;;
31818;SDS011;18384;48.860;9.188;2024-01-30T00:58:15;23.30;;;11.30;;
31818;SDS011;18384;48.860;9.188;2024-01-30T01:00:43;20.27;;;10.48;;
31818;SDS011;18384;48.860;9.188;2024-01-30T01:03:10;26.75;;;11.23;;
31818;SDS011;18384;48.860;9.188;2024-01-30T01:05:36;19.60;;;11.40;;
31818;SDS011;18384;48.860;9.188;2024-01-30T01:08:02;26.83;;;11.93;;
31818;SDS011;18384;48.860;9.188;2024-01-30T01:10:28;23.73;;;10.75;;
31818;SDS011;18384;48.860;9.188;2024-01-30T01:12:54;21.58;;;10.18;;
31818;SDS011;18384;48.860;9.188;2024-01-30T01:15:20;24.37;;;11.73;;
31818;SDS011;18384;48.860;9.188;2024-01-30T01:17:46;19.00;;;10.50;;
31818;SDS011;18384;48.860;9.188;2024-01-30T01:20:13;22.90;;;11.70;;
31818;SDS011;18384;48.860;9.188;2024-01-30T01:22:39;25.05;;;12.60;;
31818;SDS011;18384;48.860;9.188;2024-01-30T01:25:05;27.40;;;12.30;;
31818;SDS011;18384;48.860;9.188;2024-01-30T01:27:33;24.40;;;11.48;;
31818;SDS011;18384;48.860;9.188;2024-01-30T01:30:03;21.12;;;11.40;;
31818;SDS011;18384;48.860;9.188;2024-01-30T01:32:31;23.00;;;11.23;;
31818;SDS011;18384;48.860;9.188;2024-01-30T01:34:57;28.02;;;12.73;;
31818;SDS011;18384;48.860;9.188;2024-01-30T01:37:23;22.00;;;11.93;;
31818;SDS011;18384;48.860;9.188;2024-01-30T01:39:51;26.12;;;11.40;;
31818;SDS011;18384;48.860;9.188;2024-01-30T01:42:18;22.42;;;11.40;;
31818;SDS011;18384;48.860;9.188;2024-01-30T01:44:44;26.73;;;11.82;;
31818;SDS011;18384;48.860;9.188;2024-01-30T01:47:10;26.30;;;12.23;;
31818;SDS011;18384;48.860;9.188;2024-01-30T01:49:36;28.20;;;12.40;;
31818;SDS011;18384;48.860;9.188;2024-01-30T01:52:03;19.00;;;10.32;;
31818;SDS011;18384;48.860;9.188;2024-01-30T01:54:30;25.30;;;12.45;;
31818;SDS011;18384;48.860;9.188;2024-01-30T01:56:56;23.45;;;11.50;;
31818;SDS011;18384;48.860;9.188;2024-01-30T01:59:22;21.62;;;11.50;;
31818;SDS011;18384;48.860;9.188;2024-01-30T02:01:50;23.27;;;11.63;;
31818;SDS011;18384;48.860;9.188;2024-01-30T02:04:18;26.83;;;12.40;;
31818;SDS011;18384;48.860;9.188;2024-01-30T02:06:44;25.23;;;11.05;;
31818;SDS011;18384;48.860;9.188;2024-01-30T02:09:10;24.70;;;10.95;;
31818;SDS011;18384;48.860;9.188;2024-01-30T02:11:36;29.37;;;11.25;;
31818;SDS011;18384;48.860;9.188;2024-01-30T02:14:03;24.90;;;10.73;;
31818;SDS011;18384;48.860;9.188;2024-01-30T02:16:30;24.98;;;11.30;;
31818;SDS011;18384;48.860;9.188;2024-01-30T02:18:56;22.58;;;11.57;;
31818;SDS011;18384;48.860;9.188;2024-01-30T02:21:23;20.45;;;10.98;;
31818;SDS011;18384;48.860;9.188;2024-01-30T02:23:49;25.98;;;10.70;;
31818;SDS011;18384;48.860;9.188;2024-01-30T02:26:17;20.95;;;11.85;;
31818;SDS011;18384;48.860;9.188;2024-01-30T02:28:44;28.08;;;11.25;;
31818;SDS011;18384;48.860;9.188;2024-01-30T02:31:10;23.25;;;12.30;;
31818;SDS011;18384;48.860;9.188;2024-01-30T02:33:36;20.83;;;10.55;;
31818;SDS011;18384;48.860;9.188;2024-01-30T02:36:02;25.75;;;11.43;;
31818;SDS011;18384;48.860;9.188;2024-01-30T02:40:54;23.15;;;10.57;;
31818;SDS011;18384;48.860;9.188;2024-01-30T02:43:21;21.15;;;10.43;;
31818;SDS011;18384;48.860;9.188;2024-01-30T02:45:47;23.65;;;10.90;;
31818;SDS011;18384;48.860;9.188;2024-01-30T02:48:13;18.95;;;10.27;;
31818;SDS011;18384;48.860;9.188;2024-01-30T02:50:39;18.00;;;9.88;;
31818;SDS011;18384;48.860;9.188;2024-01-30T02:53:06;21.92;;;10.35;;
31818;SDS011;18384;48.860;9.188;2024-01-30T02:55:32;20.83;;;9.82;;
31818;SDS011;18384;48.860;9.188;2024-01-30T02:57:58;20.25;;;9.60;;
31818;SDS011;18384;48.860;9.188;2024-01-30T03:00:24;15.70;;;10.00;;
31818;SDS011;18384;48.860;9.188;2024-01-30T03:02:51;15.15;;;9.80;;
31818;SDS011;18384;48.860;9.188;2024-01-30T03:05:17;17.52;;;9.82;;
31818;SDS011;18384;48.860;9.188;2024-01-30T03:07:43;16.10;;;9.65;;
31818;SDS011;18384;48.860;9.188;2024-01-30T03:10:09;17.15;;;9.15;;
31818;SDS011;18384;48.860;9.188;2024-01-30T03:12:35;15.98;;;9.70;;
31818;SDS011;18384;48.860;9.188;2024-01-30T03:15:01;20.90;;;9.75;;
31818;SDS011;18384;48.860;9.188;2024-01-30T03:17:27;22.17;;;9.38;;
31818;SDS011;18384;48.860;9.188;2024-01-30T03:19:53;15.88;;;9.23;;
31818;SDS011;18384;48.860;9.188;2024-01-30T03:22:19;18.48;;;10.18;;
31818;SDS011;18384;48.860;9.188;2024-01-30T03:24:46;17.02;;;10.00;;
31818;SDS011;18384;48.860;9.188;2024-01-30T03:27:12;18.62;;;9.85;;
31818;SDS011;18384;48.860;9.188;2024-01-30T03:29:38;20.83;;;9.75;;
31818;SDS011;18384;48.860;9.188;2024-01-30T03:32:04;22.85;;;9.45;;
31818;SDS011;18384;48.860;9.188;2024-01-30T03:34:30;23.17;;;9.90;;
31818;SDS011;18384;48.860;9.188;2024-01-30T03:36:56;17.42;;;9.38;;
31818;SDS011;18384;48.860;9.188;2024-01-30T03:39:23;19.00;;;9.63;;
31818;SDS011;18384;48.860;9.188;2024-01-30T03:41:49;18.55;;;8.63;;
31818;SDS011;18384;48.860;9.188;2024-01-30T03:44:15;17.35;;;9.43;;
31818;SDS011;18384;48.860;9.188;2024-01-30T03:46:41;19.50;;;9.50;;
31818;SDS011;18384;48.860;9.188;2024-01-30T03:49:07;18.98;;;9.30;;
31818;SDS011;18384;48.860;9.188;2024-01-30T03:51:34;20.45;;;10.13;;
31818;SDS011;18384;48.860;9.188;2024-01-30T03:54:00;19.73;;;9.65;;
31818;SDS011;18384;48.860;9.188;2024-01-30T03:56:26;17.55;;;8.20;;
31818;SDS011;18384;48.860;9.188;2024-01-30T03:58:52;17.83;;;9.88;;
31818;SDS011;18384;48.860;9.188;2024-01-30T04:01:19;16.05;;;9.23;;
31818;SDS011;18384;48.860;9.188;2024-01-30T04:03:45;19.48;;;10.68;;
31818;SDS011;18384;48.860;9.188;2024-01-30T04:06:11;18.67;;;8.80;;
31818;SDS011;18384;48.860;9.188;2024-01-30T04:08:37;21.58;;;8.60;;
31818;SDS011;18384;48.860;9.188;2024-01-30T04:11:06;18.67;;;9.65;;
31818;SDS011;18384;48.860;9.188;2024-01-30T04:13:32;19.00;;;9.32;;
31818;SDS011;18384;48.860;9.188;2024-01-30T04:15:59;26.30;;;9.43;;
31818;SDS011;18384;48.860;9.188;2024-01-30T04:18:28;16.40;;;9.35;;
31818;SDS011;18384;48.860;9.188;2024-01-30T04:23:21;27.37;;;8.85;;
31818;SDS011;18384;48.860;9.188;2024-01-30T04:25:47;17.70;;;9.77;;
31818;SDS011;18384;48.860;9.188;2024-01-30T04:28:13;20.65;;;8.75;;
31818;SDS011;18384;48.860;9.188;2024-01-30T04:30:39;15.32;;;9.38;;
31818;SDS011;18384;48.860;9.188;2024-01-30T04:33:05;18.12;;;10.38;;
31818;SDS011;18384;48.860;9.188;2024-01-30T04:35:31;20.73;;;9.00;;
31818;SDS011;18384;48.860;9.188;2024-01-30T04:37:57;16.75;;;9.63;;
31818;SDS011;18384;48.860;9.188;2024-01-30T04:40:24;22.02;;;10.60;;
31818;SDS011;18384;48.860;9.188;2024-01-30T04:42:50;19.23;;;9.25;;
31818;SDS011;18384;48.860;9.188;2024-01-30T04:45:16;21.83;;;9.13;;
31818;SDS011;18384;48.860;9.188;2024-01-30T04:47:42;17.30;;;9.18;;
31818;SDS011;18384;48.860;9.188;2024-01-30T04:50:08;22.37;;;9.75;;
31818;SDS011;18384;48.860;9.188;2024-01-30T04:52:35;20.92;;;10.30;;
31818;SDS011;18384;48.860;9.188;2024-01-30T04:57:27;18.12;;;9.05;;
31818;SDS011;18384;48.860;9.188;2024-01-30T04:59:53;18.12;;;9.55;;
31818;SDS011;18384;48.860;9.188;2024-01-30T05:04:45;14.90;;;8.52;;
31818;SDS011;18384;48.860;9.188;2024-01-30T05:07:11;14.75;;;8.15;;
31818;SDS011;18384;48.860;9.188;2024-01-30T05:09:38;18.37;;;9.45;;
31818;SDS011;18384;48.860;9.188;2024-01-30T05:12:04;17.70;;;9.40;;
31818;SDS011;18384;48.860;9.188;2024-01-30T05:14:30;15.32;;;9.07;;
31818;SDS011;18384;48.860;9.188;2024-01-30T05:16:56;17.25;;;9.48;;
31818;SDS011;18384;48.860;9.188;2024-01-30T05:19:22;18.90;;;9.15;;
31818;SDS011;18384;48.860;9.188;2024-01-30T05:21:49;21.33;;;10.40;;
31818;SDS011;18384;48.860;9.188;2024-01-30T05:24:15;18.98;;;10.32;;
31818;SDS011;18384;48.860;9.188;2024-01-30T05:26:41;17.58;;;9.75;;
31818;SDS011;18384;48.860;9.188;2024-01-30T05:29:07;18.83;;;9.60;;
31818;SDS011;18384;48.860;9.188;2024-01-30T05:31:33;16.40;;;9.45;;
31818;SDS011;18384;48.860;9.188;2024-01-30T05:34:00;17.60;;;9.85;;
31818;SDS011;18384;48.860;9.188;2024-01-30T05:36:26;17.85;;;9.75;;
31818;SDS011;18384;48.860;9.188;2024-01-30T05:38:52;17.27;;;8.90;;
31818;SDS011;18384;48.860;9.188;2024-01-30T05:41:19;16.40;;;8.65;;
31818;SDS011;18384;48.860;9.188;2024-01-30T05:43:46;18.42;;;9.73;;
31818;SDS011;18384;48.860;9.188;2024-01-30T05:46:12;18.00;;;8.70;;
31818;SDS011;18384;48.860;9.188;2024-01-30T05:48:39;17.05;;;8.75;;
31818;SDS011;18384;48.860;9.188;2024-01-30T05:51:05;18.42;;;9.35;;
31818;SDS011;18384;48.860;9.188;2024-01-30T05:53:33;13.68;;;8.27;;
31818;SDS011;18384;48.860;9.188;2024-01-30T05:56:01;20.70;;;9.40;;
31818;SDS011;18384;48.860;9.188;2024-01-30T05:58:27;18.62;;;9.05;;
31818;SDS011;18384;48.860;9.188;2024-01-30T06:00:53;15.70;;;9.18;;
31818;SDS011;18384;48.860;9.188;2024-01-30T06:03:20;17.25;;;9.02;;
31818;SDS011;18384;48.860;9.188;2024-01-30T06:05:47;17.08;;;9.35;;
31818;SDS011;18384;48.860;9.188;2024-01-30T06:08:13;15.07;;;8.18;;
31818;SDS011;18384;48.860;9.188;2024-01-30T06:10:39;15.00;;;9.15;;
31818;SDS011;18384;48.860;9.188;2024-01-30T06:15:31;23.45;;;9.07;;
31818;SDS011;18384;48.860;9.188;2024-01-30T06:20:24;23.23;;;10.98;;
31818;SDS011;18384;48.860;9.188;2024-01-30T06:22:50;29.00;;;14.05;;
31818;SDS011;18384;48.860;9.188;2024-01-30T06:25:16;22.92;;;10.73;;
31818;SDS011;18384;48.860;9.188;2024-01-30T06:27:42;24.77;;;12.37;;
31818;SDS011;18384;48.860;9.188;2024-01-30T06:32:35;20.67;;;9.50;;
31818;SDS011;18384;48.860;9.188;2024-01-30T06:35:02;21.15;;;11.07;;
31818;SDS011;18384;48.860;9.188;2024-01-30T06:37:28;25.08;;;13.23;;
31818;SDS011;18384;48.860;9.188;2024-01-30T06:39:54;24.77;;;13.60;;
31818;SDS011;18384;48.860;9.188;2024-01-30T06:42:20;21.55;;;11.23;;
31818;SDS011;18384;48.860;9.188;2024-01-30T06:44:46;18.35;;;9.82;;
31818;SDS011;18384;48.860;9.188;2024-01-30T06:47:12;21.15;;;10.02;;
31818;SDS011;18384;48.860;9.188;2024-01-30T06:49:38;19.67;;;9.77;;
31818;SDS011;18384;48.860;9.188;2024-01-30T06:52:07;15.32;;;9.50;;
31818;SDS011;18384;48.860;9.188;2024-01-30T06:54:33;20.80;;;9.68;;
31818;SDS011;18384;48.860;9.188;2024-01-30T06:56:59;22.52;;;12.30;;
31818;SDS011;18384;48.860;9.188;2024-01-30T06:59:26;29.63;;;13.20;;
31818;SDS011;18384;48.860;9.188;2024-01-30T07:01:52;26.10;;;12.95;;
31818;SDS011;18384;48.860;9.188;2024-01-30T07:04:18;24.90;;;12.75;;
31818;SDS011;18384;48.860;9.188;2024-01-30T07:06:44;27.83;;;13.30;;
31818;SDS011;18384;48.860;9.188;2024-01-30T07:09:11;43.67;;;18.83;;
31818;SDS011;18384;48.860;9.188;2024-01-30T07:11:38;33.53;;;17.55;;
31818;SDS011;18384;48.860;9.188;2024-01-30T07:14:04;40.72;;;14.57;;
31818;SDS011;18384;48.860;9.188;2024-01-30T07:16:31;23.95;;;14.55;;
31818;SDS011;18384;48.860;9.188;2024-01-30T07:18:57;20.30;;;10.48;;
31818;SDS011;18384;48.860;9.188;2024-01-30T07:21:23;22.20;;;11.35;;
31818;SDS011;18384;48.860;9.188;2024-01-30T07:23:56;19.83;;;10.40;;
31818;SDS011;18384;48.860;9.188;2024-01-30T07:26:22;17.90;;;10.43;;
31818;SDS011;18384;48.860;9.188;2024-01-30T07:28:48;23.02;;;10.38;;
31818;SDS011;18384;48.860;9.188;2024-01-30T07:31:15;16.33;;;9.90;;
31818;SDS011;18384;48.860;9.188;2024-01-30T07:33:41;16.85;;;9.85;;
31818;SDS011;18384;48.860;9.188;2024-01-30T07:36:07;18.98;;;10.88;;
31818;SDS011;18384;48.860;9.188;2024-01-30T07:38:33;22.67;;;9.88;;
31818;SDS011;18384;48.860;9.188;2024-01-30T07:43:26;16.60;;;10.10;;
31818;SDS011;18384;48.860;9.188;2024-01-30T07:45:52;18.70;;;8.88;;
31818;SDS011;18384;48.860;9.188;2024-01-30T07:48:18;20.90;;;8.93;;
31818;SDS011;18384;48.860;9.188;2024-01-30T07:50:44;21.52;;;9.15;;
31818;SDS011;18384;48.860;9.188;2024-01-30T07:53:10;17.65;;;8.95;;
31818;SDS011;18384;48.860;9.188;2024-01-30T07:55:36;15.00;;;9.35;;
31818;SDS011;18384;48.860;9.188;2024-01-30T07:58:02;17.08;;;9.25;;
31818;SDS011;18384;48.860;9.188;2024-01-30T08:00:29;19.27;;;9.63;;
31818;SDS011;18384;48.860;9.188;2024-01-30T08:05:22;21.05;;;9.88;;
31818;SDS011;18384;48.860;9.188;2024-01-30T08:07:48;18.83;;;9.20;;
31818;SDS011;18384;48.860;9.188;2024-01-30T08:10:15;17.60;;;9.18;;
31818;SDS011;18384;48.860;9.188;2024-01-30T08:12:43;19.20;;;8.40;;
31818;SDS011;18384;48.860;9.188;2024-01-30T08:15:09;20.12;;;9.75;;
31818;SDS011;18384;48.860;9.188;2024-01-30T08:17:37;18.60;;;9.32;;
31818;SDS011;18384;48.860;9.188;2024-01-30T08:20:03;17.40;;;9.68;;
31818;SDS011;18384;48.860;9.188;2024-01-30T08:22:30;23.92;;;10.05;;
31818;SDS011;18384;48.860;9.188;2024-01-30T08:27:22;22.83;;;8.23;;
31818;SDS011;18384;48.860;9.188;2024-01-30T08:29:48;17.98;;;8.90;;
31818;SDS011;18384;48.860;9.188;2024-01-30T08:32:15;22.30;;;9.45;;
31818;SDS011;18384;48.860;9.188;2024-01-30T08:37:08;15.40;;;9.25;;
31818;SDS011;18384;48.860;9.188;2024-01-30T08:39:34;18.23;;;9.20;;
31818;SDS011;18384;48.860;9.188;2024-01-30T08:42:00;22.58;;;8.73;;
31818;SDS011;18384;48.860;9.188;2024-01-30T08:44:26;18.52;;;8.60;;
31818;SDS011;18384;48.860;9.188;2024-01-30T08:46:52;13.32;;;7.22;;
31818;SDS011;18384;48.860;9.188;2024-01-30T08:49:19;18.77;;;8.10;;
31818;SDS011;18384;48.860;9.188;2024-01-30T08:51:46;14.57;;;7.45;;
31818;SDS011;18384;48.860;9.188;2024-01-30T08:54:12;14.95;;;7.80;;
31818;SDS011;18384;48.860;9.188;2024-01-30T08:56:38;17.25;;;7.75;;
31818;SDS011;18384;48.860;9.188;2024-01-30T08:59:04;15.43;;;8.30;;
31818;SDS011;18384;48.860;9.188;2024-01-30T09:01:30;13.60;;;8.85;;
31818;SDS011;18384;48.860;9.188;2024-01-30T09:03:57;16.90;;;9.43;;
31818;SDS011;18384;48.860;9.188;2024-01-30T09:06:23;10.55;;;7.05;;
31818;SDS011;18384;48.860;9.188;2024-01-30T09:08:53;15.07;;;8.07;;
31818;SDS011;18384;48.860;9.188;2024-01-30T09:11:19;11.18;;;7.35;;
31818;SDS011;18384;48.860;9.188;2024-01-30T09:13:45;14.38;;;8.43;;
31818;SDS011;18384;48.860;9.188;2024-01-30T09:16:11;16.70;;;8.13;;
31818;SDS011;18384;48.860;9.188;2024-01-30T09:18:37;13.90;;;8.15;;
31818;SDS011;18384;48.860;9.188;2024-01-30T09:21:04;16.67;;;8.68;;
31818;SDS011;18384;48.860;9.188;2024-01-30T09:25:56;14.77;;;8.05;;
31818;SDS011;18384;48.860;9.188;2024-01-30T09:28:22;13.18;;;7.80;;
31818;SDS011;18384;48.860;9.188;2024-01-30T09:30:48;15.52;;;8.70;;
31818;SDS011;18384;48.860;9.188;2024-01-30T09:33:14;13.98;;;8.35;;
31818;SDS011;18384;48.860;9.188;2024-01-30T09:35:40;17.12;;;9.48;;
31818;SDS011;18384;48.860;9.188;2024-01-30T09:38:07;14.10;;;7.75;;
31818;SDS011;18384;48.860;9.188;2024-01-30T09:40:33;17.42;;;8.60;;
31818;SDS011;18384;48.860;9.188;2024-01-30T09:42:59;13.52;;;9.10;;
31818;SDS011;18384;48.860;9.188;2024-01-30T09:45:25;14.98;;;9.15;;
31818;SDS011;18384;48.860;9.188;2024-01-30T09:47:52;16.65;;;8.05;;
31818;SDS011;18384;48.860;9.188;2024-01-30T09:50:18;18.17;;;8.88;;
31818;SDS011;18384;48.860;9.188;2024-01-30T09:52:45;18.67;;;9.57;;
31818;SDS011;18384;48.860;9.188;2024-01-30T09:55:12;22.30;;;8.57;;
31818;SDS011;18384;48.860;9.188;2024-01-30T09:57:39;15.15;;;8.88;;
31818;SDS011;18384;48.860;9.188;2024-01-30T10:00:07;19.42;;;9.82;;
31818;SDS011;18384;48.860;9.188;2024-01-30T10:02:34;15.75;;;9.32;;
31818;SDS011;18384;48.860;9.188;2024-01-30T10:05:01;23.85;;;9.32;;
31818;SDS011;18384;48.860;9.188;2024-01-30T10:09:53;18.27;;;8.93;;
31818;SDS011;18384;48.860;9.188;2024-01-30T10:12:21;24.58;;;8.88;;
31818;SDS011;18384;48.860;9.188;2024-01-30T10:14:56;16.58;;;8.23;;
31818;SDS011;18384;48.860;9.188;2024-01-30T10:19:50;17.52;;;10.05;;
31818;SDS011;18384;48.860;9.188;2024-01-30T10:22:17;20.23;;;9.65;;
31818;SDS011;18384;48.860;9.188;2024-01-30T10:24:43;18.73;;;9.07;;
31818;SDS011;18384;48.860;9.188;2024-01-30T10:27:10;14.32;;;7.87;;
31818;SDS011;18384;48.860;9.188;2024-01-30T10:29:37;16.90;;;8.65;;
31818;SDS011;18384;48.860;9.188;2024-01-30T10:32:03;20.20;;;9.40;;
31818;SDS011;18384;48.860;9.188;2024-01-30T10:34:30;17.55;;;8.70;;
31818;SDS011;18384;48.860;9.188;2024-01-30T10:37:07;16.35;;;8.45;;
31818;SDS011;18384;48.860;9.188;2024-01-30T10:39:40;17.42;;;8.80;;
31818;SDS011;18384;48.860;9.188;2024-01-30T10:42:14;21.80;;;7.87;;
31818;SDS011;18384;48.860;9.188;2024-01-30T10:54:00;17.58;;;8.63;;
31818;SDS011;18384;48.860;9.188;2024-01-30T10:56:27;15.82;;;7.90;;
31818;SDS011;18384;48.860;9.188;2024-01-30T10:58:54;19.25;;;9.30;;
31818;SDS011;18384;48.860;9.188;2024-01-30T11:01:21;24.25;;;8.90;;
31818;SDS011;18384;48.860;9.188;2024-01-30T11:03:57;16.08;;;8.02;;
31818;SDS011;18384;48.860;9.188;2024-01-30T11:06:24;17.12;;;8.30;;
31818;SDS011;18384;48.860;9.188;2024-01-30T11:09:00;18.40;;;8.52;;
31818;SDS011;18384;48.860;9.188;2024-01-30T11:14:27;17.98;;;8.73;;
31818;SDS011;18384;48.860;9.188;2024-01-30T11:16:58;20.48;;;8.57;;
31818;SDS011;18384;48.860;9.188;2024-01-30T11:19:25;16.67;;;8.23;;
31818;SDS011;18384;48.860;9.188;2024-01-30T11:21:52;17.33;;;8.18;;
31818;SDS011;18384;48.860;9.188;2024-01-30T11:24:22;18.70;;;8.00;;
31818;SDS011;18384;48.860;9.188;2024-01-30T11:26:49;19.60;;;7.78;;
31818;SDS011;18384;48.860;9.188;2024-01-30T11:29:24;25.58;;;8.52;;
31818;SDS011;18384;48.860;9.188;2024-01-30T11:31:58;20.05;;;8.73;;
31818;SDS011;18384;48.860;9.188;2024-01-30T11:34:24;16.08;;;8.48;;
31818;SDS011;18384;48.860;9.188;2024-01-30T11:36:57;22.05;;;7.53;;
31818;SDS011;18384;48.860;9.188;2024-01-30T11:39:31;19.12;;;8.15;;
31818;SDS011;18384;48.860;9.188;2024-01-30T11:41:58;19.73;;;8.10;;
31818;SDS011;18384;48.860;9.188;2024-01-30T11:44:25;17.35;;;7.82;;
31818;SDS011;18384;48.860;9.188;2024-01-30T11:46:51;27.15;;;9.32;;
31818;SDS011;18384;48.860;9.188;2024-01-30T11:49:17;29.65;;;12.10;;
31818;SDS011;18384;48.860;9.188;2024-01-30T11:51:45;36.08;;;16.75;;
31818;SDS011;18384;48.860;9.188;2024-01-30T11:54:13;25.98;;;11.45;;
31818;SDS011;18384;48.860;9.188;2024-01-30T11:56:41;19.98;;;8.60;;
31818;SDS011;18384;48.860;9.188;2024-01-30T11:59:08;15.45;;;7.45;;
31818;SDS011;18384;48.860;9.188;2024-01-30T12:01:34;15.07;;;7.18;;
31818;SDS011;18384;48.860;9.188;2024-01-30T12:04:01;24.23;;;7.95;;
31818;SDS011;18384;48.860;9.188;2024-01-30T12:06:28;16.90;;;7.80;;
31818;SDS011;18384;48.860;9.188;2024-01-30T12:08:56;15.68;;;7.18;;
31818;SDS011;18384;48.860;9.188;2024-01-30T12:11:28;30.85;;;9.63;;
31818;SDS011;18384;48.860;9.188;2024-01-30T12:13:55;18.35;;;8.25;;
31818;SDS011;18384;48.860;9.188;2024-01-30T12:16:21;19.27;;;8.10;;
31818;SDS011;18384;48.860;9.188;2024-01-30T12:18:48;20.50;;;8.20;;
31818;SDS011;18384;48.860;9.188;2024-01-30T12:21:17;29.80;;;7.68;;
31818;SDS011;18384;48.860;9.188;2024-01-30T12:23:44;21.62;;;8.13;;
31818;SDS011;18384;48.860;9.188;2024-01-30T12:26:10;18.70;;;7.90;;
31818;SDS011;18384;48.860;9.188;2024-01-30T12:28:47;21.27;;;8.43;;
31818;SDS011;18384;48.860;9.188;2024-01-30T12:31:19;18.10;;;8.07;;
31818;SDS011;18384;48.860;9.188;2024-01-30T12:33:54;17.85;;;8.45;;
31818;SDS011;18384;48.860;9.188;2024-01-30T12:36:23;18.20;;;9.32;;
31818;SDS011;18384;48.860;9.188;2024-01-30T12:38:49;22.27;;;9.20;;
31818;SDS011;18384;48.860;9.188;2024-01-30T12:41:16;19.98;;;8.38;;
31818;SDS011;18384;48.860;9.188;2024-01-30T12:43:42;19.62;;;8.68;;
31818;SDS011;18384;48.860;9.188;2024-01-30T12:46:09;21.23;;;8.70;;
31818;SDS011;18384;48.860;9.188;2024-01-30T12:51:01;21.12;;;8.52;;
31818;SDS011;18384;48.860;9.188;2024-01-30T12:53:27;20.15;;;10.45;;
31818;SDS011;18384;48.860;9.188;2024-01-30T12:55:53;24.17;;;9.43;;
31818;SDS011;18384;48.860;9.188;2024-01-30T12:58:19;18.62;;;8.60;;
31818;SDS011;18384;48.860;9.188;2024-01-30T13:03:12;23.47;;;9.17;;
31818;SDS011;18384;48.860;9.188;2024-01-30T13:05:38;15.85;;;7.65;;
31818;SDS011;18384;48.860;9.188;2024-01-30T13:08:05;12.60;;;8.63;;
31818;SDS011;18384;48.860;9.188;2024-01-30T13:10:31;15.55;;;8.45;;
31818;SDS011;18384;48.860;9.188;2024-01-30T13:12:57;11.80;;;7.10;;
31818;SDS011;18384;48.860;9.188;2024-01-30T13:15:23;13.85;;;7.15;;
31818;SDS011;18384;48.860;9.188;2024-01-30T13:17:50;26.25;;;8.25;;
31818;SDS011;18384;48.860;9.188;2024-01-30T13:20:18;14.20;;;7.47;;
31818;SDS011;18384;48.860;9.188;2024-01-30T13:22:47;16.77;;;8.18;;
31818;SDS011;18384;48.860;9.188;2024-01-30T13:25:14;14.43;;;7.95;;
31818;SDS011;18384;48.860;9.188;2024-01-30T13:27:41;12.73;;;7.07;;
31818;SDS011;18384;48.860;9.188;2024-01-30T13:32:34;13.93;;;7.78;;
31818;SDS011;18384;48.860;9.188;2024-01-30T13:35:01;8.93;;;5.40;;
31818;SDS011;18384;48.860;9.188;2024-01-30T13:37:27;13.45;;;6.12;;
31818;SDS011;18384;48.860;9.188;2024-01-30T13:39:53;20.90;;;7.93;;
31818;SDS011;18384;48.860;9.188;2024-01-30T13:42:19;17.27;;;8.82;;
31818;SDS011;18384;48.860;9.188;2024-01-30T13:44:45;30.58;;;11.63;;
31818;SDS011;18384;48.860;9.188;2024-01-30T13:47:11;28.08;;;11.30;;
31818;SDS011;18384;48.860;9.188;2024-01-30T13:49:37;15.43;;;7.05;;
31818;SDS011;18384;48.860;9.188;2024-01-30T13:52:04;13.70;;;6.62;;
31818;SDS011;18384;48.860;9.188;2024-01-30T13:54:30;17.12;;;7.10;;
31818;SDS011;18384;48.860;9.188;2024-01-30T13:56:57;19.25;;;8.13;;
31818;SDS011;18384;48.860;9.188;2024-01-30T13:59:23;22.37;;;9.15;;
31818;SDS011;18384;48.860;9.188;2024-01-30T14:01:51;15.68;;;9.30;;
31818;SDS011;18384;48.860;9.188;2024-01-30T14:04:17;19.60;;;8.90;;
31818;SDS011;18384;48.860;9.188;2024-01-30T14:06:43;17.95;;;9.07;;
31818;SDS011;18384;48.860;9.188;2024-01-30T14:09:09;18.23;;;9.25;;
31818;SDS011;18384;48.860;9.188;2024-01-30T14:11:36;18.95;;;8.80;;
31818;SDS011;18384;48.860;9.188;2024-01-30T14:14:02;21.60;;;11.60;;
31818;SDS011;18384;48.860;9.188;2024-01-30T14:16:28;18.23;;;9.52;;
31818;SDS011;18384;48.860;9.188;2024-01-30T14:18:54;26.00;;;10.85;;
31818;SDS011;18384;48.860;9.188;2024-01-30T14:21:20;19.98;;;10.20;;
31818;SDS011;18384;48.860;9.188;2024-01-30T14:23:46;17.55;;;9.50;;
31818;SDS011;18384;48.860;9.188;2024-01-30T14:26:12;26.48;;;11.18;;
31818;SDS011;18384;48.860;9.188;2024-01-30T14:28:38;21.40;;;9.52;;
31818;SDS011;18384;48.860;9.188;2024-01-30T14:31:05;23.15;;;10.23;;
31818;SDS011;18384;48.860;9.188;2024-01-30T14:33:31;19.62;;;9.40;;
31818;SDS011;18384;48.860;9.188;2024-01-30T14:35:57;17.23;;;9.23;;
31818;SDS011;18384;48.860;9.188;2024-01-30T14:38:23;18.83;;;9.07;;
31818;SDS011;18384;48.860;9.188;2024-01-30T14:40:50;22.00;;;9.30;;
31818;SDS011;18384;48.860;9.188;2024-01-30T14:43:16;15.65;;;7.85;;
31818;SDS011;18384;48.860;9.188;2024-01-30T14:45:42;19.02;;;8.18;;
31818;SDS011;18384;48.860;9.188;2024-01-30T14:48:11;20.23;;;8.25;;
31818;SDS011;18384;48.860;9.188;2024-01-30T14:53:03;16.58;;;8.00;;
31818;SDS011;18384;48.860;9.188;2024-01-30T14:55:29;19.33;;;8.55;;
31818;SDS011;18384;48.860;9.188;2024-01-30T14:57:55;15.05;;;8.63;;
31818;SDS011;18384;48.860;9.188;2024-01-30T15:00:21;15.82;;;8.27;;
31818;SDS011;18384;48.860;9.188;2024-01-30T15:02:48;19.02;;;8.63;;
31818;SDS011;18384;48.860;9.188;2024-01-30T15:05:14;18.70;;;8.93;;
31818;SDS011;18384;48.860;9.188;2024-01-30T15:07:40;24.35;;;9.52;;
31818;SDS011;18384;48.860;9.188;2024-01-30T15:10:07;18.45;;;10.10;;
31818;SDS011;18384;48.860;9.188;2024-01-30T15:12:36;19.50;;;8.90;;
31818;SDS011;18384;48.860;9.188;2024-01-30T15:17:28;25.73;;;12.80;;
31818;SDS011;18384;48.860;9.188;2024-01-30T15:19:55;35.22;;;14.85;;
31818;SDS011;18384;48.860;9.188;2024-01-30T15:22:21;28.67;;;11.05;;
31818;SDS011;18384;48.860;9.188;2024-01-30T15:24:47;23.83;;;10.05;;
31818;SDS011;18384;48.860;9.188;2024-01-30T15:27:13;20.80;;;9.68;;
31818;SDS011;18384;48.860;9.188;2024-01-30T15:29:39;16.95;;;9.60;;
31818;SDS011;18384;48.860;9.188;2024-01-30T15:32:05;14.25;;;8.35;;
31818;SDS011;18384;48.860;9.188;2024-01-30T15:34:32;22.20;;;9.18;;